Time;durP1;ratioP1;P1;durP2;ratioP2;P2;SDS_P1;SDS_P2;PMS_P1;PMS_P2;Temp;Humidity;BMP_temperature;BMP_pressure;BME280_temperature;BME280_humidity;BME280_pressure;Samples;Min_cycle;Max_cycle;Signal;HPM_P1;HPM_P2
2022/12/01 00:02:00;;;;;;;;;49.50;33.00;;;;;9.61;65.48;102029.22;5012305;28;45456;-62
2022/12/01 00:04:25;;;;;;;;;48.00;37.00;;;;;9.52;65.84;102017.25;5017718;28;45355;-61
2022/12/01 00:06:51;;;;;;;;;55.00;39.00;;;;;9.55;66.00;102017.41;5022122;28;61947;-64
2022/12/01 00:12:00;;;;;;;;;47.50;36.00;;;;;9.53;65.51;102020.81;5011313;28;45098;-64
2022/12/01 00:14:25;;;;;;;;;48.50;37.25;;;;;9.50;65.65;102015.31;5014252;28;45351;-62
2022/12/01 00:16:50;;;;;;;;;50.00;38.50;;;;;9.54;66.20;102015.56;5007958;28;55647;-64
2022/12/01 00:19:16;;;;;;;;;52.25;39.00;;;;;9.45;66.17;101996.41;5009229;28;47007;-62
2022/12/01 00:21:42;;;;;;;;;45.75;35.25;;;;;9.53;65.27;102016.38;5009988;28;45253;-62
2022/12/01 00:24:09;;;;;;;;;47.00;36.25;;;;;9.49;65.33;102014.41;5021943;28;45364;-65
2022/12/01 00:26:36;;;;;;;;;45.75;36.25;;;;;9.45;65.16;102022.19;5021196;28;45649;-64
2022/12/01 00:29:02;;;;;;;;;51.75;36.75;;;;;9.37;65.80;102017.38;5024501;28;44953;-66
2022/12/01 00:31:27;;;;;;;;;50.50;35.75;;;;;9.46;65.40;102029.34;5011172;28;45255;-62
2022/12/01 00:33:53;;;;;;;;;51.25;37.25;;;;;9.44;65.13;102025.66;5011616;28;44953;-63
2022/12/01 00:36:19;;;;;;;;;45.00;36.25;;;;;9.38;65.30;102028.94;5011419;28;45382;-61
2022/12/01 00:38:44;;;;;;;;;39.75;32.50;;;;;9.31;64.89;102021.47;5008607;28;45120;-60
2022/12/01 00:41:10;;;;;;;;;46.50;35.25;;;;;9.25;64.83;102006.06;5023558;28;45564;-62
2022/12/01 00:43:35;;;;;;;;;51.25;38.50;;;;;9.30;64.55;102009.88;5011329;28;45093;-61
2022/12/01 00:46:01;;;;;;;;;40.50;32.00;;;;;9.22;64.20;102019.22;5022853;28;45686;-61
2022/12/01 00:48:26;;;;;;;;;43.25;28.00;;;;;9.17;64.96;102024.34;5028738;28;45240;-61
2022/12/01 00:50:53;;;;;;;;;49.25;38.50;;;;;9.17;65.26;102026.06;5023294;28;45252;-62
2022/12/01 00:53:18;;;;;;;;;45.75;35.75;;;;;9.17;64.86;102031.41;5012673;28;45073;-61
2022/12/01 00:55:44;;;;;;;;;42.25;36.75;;;;;9.12;64.88;102019.59;5014414;28;45839;-64
2022/12/01 00:58:09;;;;;;;;;47.75;37.00;;;;;8.97;65.39;101993.94;5015376;28;45308;-62
2022/12/01 01:00:37;;;;;;;;;48.00;36.75;;;;;9.00;65.16;102007.44;5026806;28;44926;-61
2022/12/01 01:03:04;;;;;;;;;44.00;34.75;;;;;9.17;65.36;102031.41;5027589;28;45317;-64
2022/12/01 01:05:29;;;;;;;;;42.25;34.50;;;;;9.13;65.55;102024.09;5022412;28;45547;-60
2022/12/01 01:07:54;;;;;;;;;39.00;31.75;;;;;9.13;65.61;102024.09;5023101;28;45119;-61
2022/12/01 01:10:20;;;;;;;;;50.25;36.00;;;;;9.09;65.06;102009.69;5012864;28;45006;-61
2022/12/01 01:12:45;;;;;;;;;43.50;35.75;;;;;8.46;64.75;101907.75;5038045;28;45131;-63
2022/12/01 01:15:10;;;;;;;;;49.25;35.00;;;;;9.09;65.04;102016.75;5014346;28;47378;-62
2022/12/01 01:17:35;;;;;;;;;50.00;37.00;;;;;8.96;64.49;102000.13;5013031;28;45226;-62
2022/12/01 01:20:03;;;;;;;;;43.25;36.50;;;;;9.01;64.83;102019.94;5012277;28;45000;-65
2022/12/01 01:22:28;;;;;;;;;52.50;36.50;;;;;9.04;65.27;102029.81;5009926;28;45595;-60
2022/12/01 01:24:54;;;;;;;;;43.50;33.25;;;;;9.04;65.24;102036.09;5011024;28;47425;-64
2022/12/01 01:27:19;;;;;;;;;37.75;33.75;;;;;9.02;64.54;102037.78;5011865;28;45256;-62
2022/12/01 01:29:44;;;;;;;;;50.25;36.75;;;;;8.95;65.09;102016.94;5013080;28;44936;-61
2022/12/01 01:32:10;;;;;;;;;44.50;36.00;;;;;9.00;64.98;102031.41;5039982;28;45238;-59
2022/12/01 01:34:35;;;;;;;;;46.75;35.25;;;;;8.88;65.21;102020.13;5012663;28;45732;-63
2022/12/01 01:37:00;;;;;;;;;49.50;34.75;;;;;8.86;65.29;102021.81;5015033;28;45013;-62
2022/12/01 01:39:26;;;;;;;;;47.75;36.00;;;;;8.93;65.65;102044.38;5046654;28;44966;-63
2022/12/01 01:41:51;;;;;;;;;48.75;37.75;;;;;8.91;64.75;102043.34;5022051;28;44935;-63
2022/12/01 01:44:52;;;;;;;;;46.00;38.25;;;;;8.94;65.05;102049.78;5041853;28;46286;-62
2022/12/01 01:47:24;;;;;;;;;36.75;32.50;;;;;8.94;65.59;102054.16;5043552;28;45473;-63
2022/12/01 01:49:50;;;;;;;;;48.75;34.50;;;;;8.97;65.56;102049.91;5016488;28;45484;-62
2022/12/01 01:52:16;;;;;;;;;36.00;33.50;;;;;8.90;65.69;102038.88;5018352;28;45168;-60
2022/12/01 01:54:46;;;;;;;;;38.50;33.00;;;;;8.95;65.67;102050.69;5017186;28;45402;-61
2022/12/01 01:57:16;;;;;;;;;41.50;34.50;;;;;9.04;64.88;102057.44;5018785;28;45266;-59
2022/12/01 01:59:46;;;;;;;;;42.50;34.00;;;;;8.90;64.66;102023.78;5029108;28;45088;-60
2022/12/01 02:02:11;;;;;;;;;45.25;36.00;;;;;9.04;64.25;102041.44;5013892;28;45071;-64
2022/12/01 02:04:41;;;;;;;;;50.25;36.50;;;;;9.04;64.63;102025.44;5020712;28;45155;-65
2022/12/01 02:07:08;;;;;;;;;45.25;34.75;;;;;9.09;64.63;102030.09;5014958;28;45165;-61
2022/12/01 02:09:35;;;;;;;;;46.75;35.00;;;;;9.15;64.21;102022.41;5018514;28;45179;-64
2022/12/01 02:12:30;;;;;;;;;55.50;32.75;;;;;9.23;63.65;102034.41;5013676;28;45663;-62
2022/12/01 02:15:07;;;;;;;;;44.50;34.00;;;;;9.27;64.32;102035.47;5013370;28;45653;-63
2022/12/01 02:17:54;;;;;;;;;47.00;35.50;;;;;9.26;63.89;102039.00;5011200;28;44943;-61
2022/12/01 02:20:57;;;;;;;;;44.50;34.50;;;;;8.76;63.48;101945.78;5011201;28;45077;-63
2022/12/01 02:23:56;;;;;;;;;46.25;35.00;;;;;9.28;63.50;102038.22;5018724;28;45235;-60
2022/12/01 02:26:47;;;;;;;;;43.50;33.50;;;;;9.31;63.04;102040.16;5012711;28;45594;-60
2022/12/01 02:29:31;;;;;;;;;50.25;33.25;;;;;9.33;63.27;102039.38;5010295;28;44939;-64
2022/12/01 02:31:59;;;;;;;;;47.75;33.00;;;;;9.35;63.61;102042.13;5007633;28;45284;-68
2022/12/01 02:34:37;;;;;;;;;50.00;36.25;;;;;9.23;63.56;102021.06;5025985;28;45121;-61
2022/12/01 02:37:13;;;;;;;;;53.25;36.25;;;;;9.28;62.74;102019.56;5013562;28;45382;-61
2022/12/01 02:40:21;;;;;;;;;47.00;34.75;;;;;9.29;62.81;102016.06;5023149;28;45138;-59
2022/12/01 02:42:49;;;;;;;;;49.00;36.25;;;;;9.41;62.53;102038.03;5012631;28;45292;-63
2022/12/01 02:45:25;;;;;;;;;51.00;34.00;;;;;9.30;62.74;102023.22;5010950;28;45441;-60
2022/12/01 02:47:55;;;;;;;;;40.25;33.75;;;;;9.25;63.55;102030.06;5022865;28;45365;-62
2022/12/01 02:50:24;;;;;;;;;28.50;26.00;;;;;9.20;63.59;102028.91;5008051;28;44981;-63
2022/12/01 02:52:49;;;;;;;;;42.00;34.00;;;;;9.05;63.93;102013.00;5014577;28;45538;-64
2022/12/01 02:55:15;;;;;;;;;51.25;36.50;;;;;9.13;63.31;102030.34;5013816;28;45359;-62
2022/12/01 02:57:40;;;;;;;;;46.75;34.00;;;;;9.12;63.42;102031.16;5017190;28;51361;-64
2022/12/01 03:00:06;;;;;;;;;43.50;31.00;;;;;9.07;63.76;102021.09;5023376;28;45413;-62
2022/12/01 03:02:47;;;;;;;;;38.00;31.75;;;;;9.09;63.79;102023.03;5019605;28;45569;-60
2022/12/01 03:05:32;;;;;;;;;35.75;29.25;;;;;9.09;63.08;102028.34;5017886;28;44930;-61
2022/12/01 03:08:25;;;;;;;;;46.50;32.50;;;;;9.05;63.93;102021.00;5023182;28;46109;-59
2022/12/01 03:10:56;;;;;;;;;33.50;28.25;;;;;8.82;63.90;101996.69;5022222;28;45093;-65
2022/12/01 03:13:36;;;;;;;;;33.00;31.50;;;;;8.96;63.90;102024.13;5017932;28;45411;-59
2022/12/01 03:16:26;;;;;;;;;47.00;34.50;;;;;8.93;64.44;102031.94;5015527;28;45136;-64
2022/12/01 03:18:59;;;;;;;;;38.50;28.25;;;;;8.75;64.22;101993.66;5015956;28;45793;-61
2022/12/01 03:21:24;;;;;;;;;41.75;30.75;;;;;8.91;63.84;102019.34;5006701;28;45001;-61
2022/12/01 03:24:13;;;;;;;;;40.75;31.25;;;;;8.89;64.39;102018.34;5025272;28;45172;-59
2022/12/01 03:26:41;;;;;;;;;42.50;33.00;;;;;8.89;64.75;102024.59;5019317;28;45113;-60
2022/12/01 03:29:14;;;;;;;;;43.25;33.25;;;;;8.93;65.02;102033.69;5025645;28;45806;-62
2022/12/01 03:31:47;;;;;;;;;39.00;30.75;;;;;8.95;65.17;102022.28;5019015;28;44988;-62
2022/12/01 03:34:41;;;;;;;;;31.25;31.25;;;;;8.90;64.69;102021.13;5028059;28;45134;-61
2022/12/01 03:37:13;;;;;;;;;52.00;34.50;;;;;8.78;64.26;102013.38;5017191;28;45496;-62
2022/12/01 03:39:42;;;;;;;;;46.00;34.00;;;;;8.82;64.71;102022.44;5011337;28;46070;-61
2022/12/01 03:42:15;;;;;;;;;49.50;34.75;;;;;8.81;64.13;102018.88;5020359;28;45362;-62
2022/12/01 03:44:48;;;;;;;;;48.00;32.50;;;;;8.91;64.27;102032.69;5026285;28;45373;-63
2022/12/01 03:47:23;;;;;;;;;45.25;34.00;;;;;8.97;64.71;102041.00;5026788;28;45107;-62
2022/12/01 03:49:52;;;;;;;;;39.00;32.50;;;;;8.94;64.80;102025.78;5014098;28;45642;-64
2022/12/01 03:52:35;;;;;;;;;38.00;33.25;;;;;8.98;64.13;102030.44;5011584;28;45484;-63
2022/12/01 03:55:20;;;;;;;;;43.25;34.75;;;;;8.98;63.91;102021.53;5011006;28;45089;-61
2022/12/01 03:57:53;;;;;;;;;36.25;29.00;;;;;9.06;64.67;102032.56;5010213;28;45278;-60
2022/12/01 04:00:19;;;;;;;;;41.25;34.75;;;;;9.06;63.46;102019.25;5010097;28;45677;-63
2022/12/01 04:02:44;;;;;;;;;34.25;31.50;;;;;9.03;64.58;102022.69;5012828;28;46252;-62
2022/12/01 04:05:10;;;;;;;;;46.25;32.25;;;;;8.97;64.07;102025.03;5010031;28;45245;-62
2022/12/01 04:07:37;;;;;;;;;38.50;33.75;;;;;8.98;64.23;102019.78;5011171;28;45042;-60
2022/12/01 04:10:04;;;;;;;;;41.25;34.50;;;;;8.99;64.42;102016.28;5010434;28;45553;-62
2022/12/01 04:12:31;;;;;;;;;48.75;35.25;;;;;8.95;64.08;102010.69;5007372;28;45202;-63
2022/12/01 04:14:59;;;;;;;;;41.00;29.00;;;;;8.99;64.21;102007.34;5009494;28;45245;-61
2022/12/01 04:17:25;;;;;;;;;39.50;33.75;;;;;9.00;63.56;102010.09;5009455;28;45247;-63
2022/12/01 04:19:52;;;;;;;;;45.75;31.00;;;;;8.96;63.87;102005.47;5023573;28;47615;-63
2022/12/01 04:22:18;;;;;;;;;37.75;31.50;;;;;8.82;64.68;101990.47;5032489;28;45037;-61
2022/12/01 04:24:43;;;;;;;;;50.00;35.25;;;;;8.94;64.85;102012.47;5030406;28;45049;-63
2022/12/01 04:27:09;;;;;;;;;45.25;35.50;;;;;8.97;64.08;102011.69;5023756;28;45357;-61
2022/12/01 04:29:34;;;;;;;;;44.50;35.25;;;;;8.99;64.24;102028.66;5018840;28;45891;-62
2022/12/01 04:31:59;;;;;;;;;48.25;30.00;;;;;8.93;64.45;102009.72;5030603;28;52516;-60
2022/12/01 04:34:24;;;;;;;;;52.25;37.75;;;;;8.88;64.32;102001.47;5017630;28;45214;-65
2022/12/01 04:36:50;;;;;;;;;37.50;29.50;;;;;8.73;64.26;101984.63;5027125;28;45014;-63
2022/12/01 04:39:15;;;;;;;;;46.25;35.75;;;;;8.82;64.85;102014.44;5009207;28;45507;-63
2022/12/01 04:41:41;;;;;;;;;47.00;36.75;;;;;8.83;64.66;102029.63;5023655;28;45276;-62
2022/12/01 04:44:06;;;;;;;;;52.00;34.25;;;;;8.79;65.36;102022.28;5007703;28;45427;-62
2022/12/01 04:46:31;;;;;;;;;35.00;29.25;;;;;8.79;64.33;102006.28;5016540;28;45419;-65
2022/12/01 04:48:57;;;;;;;;;41.00;34.75;;;;;8.72;65.02;102005.03;5010567;28;45617;-63
2022/12/01 04:51:22;;;;;;;;;50.00;35.75;;;;;8.78;64.17;102021.38;5023445;28;45140;-61
2022/12/01 04:53:49;;;;;;;;;43.00;32.25;;;;;8.79;64.29;102025.88;5016123;28;44996;-61
2022/12/01 04:56:14;;;;;;;;;45.25;33.25;;;;;8.75;64.32;102013.22;5028656;28;45708;-63
2022/12/01 04:58:39;;;;;;;;;39.75;33.00;;;;;8.69;64.42;102012.88;5010538;28;45380;-61
2022/12/01 05:01:11;;;;;;;;;42.00;34.75;;;;;8.74;64.47;102035.34;5017553;28;45333;-67
2022/12/01 05:03:42;;;;;;;;;49.50;34.50;;;;;8.76;64.35;102027.44;5004553;28;45511;-63
2022/12/01 05:06:14;;;;;;;;;47.25;36.25;;;;;8.73;64.63;102017.53;5017262;28;45372;-63
2022/12/01 05:08:40;;;;;;;;;49.50;35.00;;;;;8.73;64.30;102029.94;5019814;28;45466;-66
2022/12/01 05:11:07;;;;;;;;;47.75;37.50;;;;;8.72;64.96;102029.03;5012364;28;44947;-67
2022/12/01 05:13:35;;;;;;;;;43.25;32.25;;;;;8.73;64.92;102035.25;5016661;28;45378;-61
2022/12/01 05:16:24;;;;;;;;;55.75;36.25;;;;;8.76;65.18;102032.75;5010468;28;44977;-62
2022/12/01 05:20:55;;;;;;;;;41.00;32.50;;;;;8.71;64.21;102023.59;5015544;28;45747;-60
2022/12/01 05:21:37;;;;;;;;;44.25;34.25;;;;;8.64;63.94;102019.69;5015156;28;45096;-63
2022/12/01 05:24:03;;;;;;;;;39.50;33.00;;;;;8.65;64.68;102024.22;5019017;28;45350;-64
2022/12/01 05:26:28;;;;;;;;;40.25;33.25;;;;;8.57;64.54;102012.22;5025660;28;45050;-64
2022/12/01 05:28:53;;;;;;;;;38.25;31.75;;;;;8.66;64.24;102029.63;5021731;28;45216;-62
2022/12/01 05:31:19;;;;;;;;;33.75;24.50;;;;;8.63;64.56;102013.47;5013526;28;52151;-64
2022/12/01 05:33:44;;;;;;;;;41.75;31.75;;;;;8.61;64.46;102001.81;5015929;28;45295;-67
2022/12/01 05:36:09;;;;;;;;;42.00;30.25;;;;;8.65;64.34;102005.56;5012236;28;45279;-66
2022/12/01 05:38:35;;;;;;;;;47.25;32.50;;;;;8.73;63.60;102022.88;5003682;28;49806;-61
2022/12/01 05:41:00;;;;;;;;;35.00;31.25;;;;;8.72;63.68;102022.78;5015724;28;45576;-63
2022/12/01 05:43:25;;;;;;;;;39.50;31.75;;;;;8.70;63.21;102016.47;5001725;28;45435;-63
2022/12/01 05:45:51;;;;;;;;;49.25;37.00;;;;;8.77;63.28;102029.28;5003733;28;45570;-66
2022/12/01 05:48:16;;;;;;;;;33.75;28.00;;;;;8.78;64.01;102037.34;5010667;28;46222;-66
2022/12/01 05:50:42;;;;;;;;;37.00;32.00;;;;;8.76;63.34;102033.69;4999529;28;45384;-59
2022/12/01 05:53:10;;;;;;;;;45.50;35.25;;;;;8.77;63.43;102032.84;5009985;28;45356;-62
2022/12/01 05:55:35;;;;;;;;;43.25;33.75;;;;;8.71;62.41;102029.88;5018567;28;45295;-63
2022/12/01 05:58:01;;;;;;;;;38.00;32.00;;;;;8.75;63.10;102031.88;5009190;28;45431;-63
2022/12/01 06:00:27;;;;;;;;;45.75;34.50;;;;;8.84;62.17;102047.41;5008367;28;45352;-64
2022/12/01 06:02:53;;;;;;;;;42.00;32.75;;;;;8.73;62.94;102033.53;5025320;28;45312;-64
2022/12/01 06:05:18;;;;;;;;;45.25;31.25;;;;;8.79;62.81;102054.25;5003428;28;45501;-62
2022/12/01 06:07:43;;;;;;;;;44.25;34.50;;;;;8.59;62.16;102015.88;4997661;28;46641;-64
2022/12/01 06:10:09;;;;;;;;;41.75;36.00;;;;;8.76;62.41;102043.44;4997260;28;45460;-63
2022/12/01 06:12:36;;;;;;;;;49.75;36.75;;;;;8.71;62.82;102020.94;5006088;28;45309;-69
2022/12/01 06:15:05;;;;;;;;;40.75;34.75;;;;;8.79;62.39;102035.59;5006451;28;45260;-64
2022/12/01 06:17:31;;;;;;;;;51.75;36.75;;;;;8.84;63.20;102034.09;5006905;28;45575;-64
2022/12/01 06:19:56;;;;;;;;;44.25;31.25;;;;;8.85;62.32;102027.94;5012337;28;45385;-65
2022/12/01 06:22:21;;;;;;;;;54.25;35.50;;;;;8.92;62.83;102040.75;5009699;28;45327;-66
2022/12/01 06:24:47;;;;;;;;;35.75;27.50;;;;;8.95;62.44;102040.94;5006257;28;45502;-65
2022/12/01 06:27:12;;;;;;;;;41.75;32.25;;;;;8.86;62.40;102019.13;5010616;28;45414;-61
2022/12/01 06:29:37;;;;;;;;;45.50;34.75;;;;;8.84;62.69;102023.44;5021956;28;45546;-61
2022/12/01 06:32:03;;;;;;;;;51.50;34.75;;;;;8.85;62.86;102020.84;5008984;28;45623;-61
2022/12/01 06:34:28;;;;;;;;;47.25;36.25;;;;;8.98;62.25;102043.75;5014091;28;45251;-60
2022/12/01 06:36:54;;;;;;;;;48.00;34.00;;;;;8.95;61.06;102046.25;5010389;28;45606;-63
2022/12/01 06:39:19;;;;;;;;;50.00;36.00;;;;;8.90;61.58;102039.75;5022272;28;45293;-64
2022/12/01 06:41:44;;;;;;;;;50.75;34.75;;;;;8.80;62.74;102017.03;5011981;28;44995;-62
2022/12/01 06:44:10;;;;;;;;;45.00;31.00;;;;;8.86;62.24;102045.78;5010165;28;45352;-66
2022/12/01 06:46:35;;;;;;;;;57.25;39.00;;;;;8.85;62.31;102049.28;5034245;28;46305;-67
2022/12/01 06:49:01;;;;;;;;;43.25;33.25;;;;;8.82;62.34;102047.34;5021845;28;45097;-62
2022/12/01 06:51:27;;;;;;;;;43.25;33.75;;;;;8.84;61.86;102047.41;5007465;28;45496;-66
2022/12/01 06:53:56;;;;;;;;;47.75;36.50;;;;;8.73;61.75;102032.59;5009575;28;45725;-60
2022/12/01 06:56:22;;;;;;;;;48.25;36.75;;;;;8.79;62.07;102044.53;5012377;28;46156;-64
2022/12/01 06:58:49;;;;;;;;;42.25;34.25;;;;;8.82;62.83;102050.00;5010060;28;45707;-61
2022/12/01 07:01:15;;;;;;;;;52.50;37.75;;;;;8.87;62.45;102052.03;5025515;28;45392;-63
2022/12/01 07:03:40;;;;;;;;;50.50;38.25;;;;;8.89;62.26;102055.69;5022606;28;45601;-61
2022/12/01 07:06:05;;;;;;;;;50.75;40.25;;;;;8.81;61.48;102045.53;5014531;28;45943;-62
2022/12/01 07:08:31;;;;;;;;;56.25;40.25;;;;;8.79;62.10;102038.28;5015418;28;45490;-59
2022/12/01 07:11:03;;;;;;;;;50.00;40.75;;;;;8.77;61.70;102040.84;5014238;28;45430;-62
2022/12/01 07:13:29;;;;;;;;;47.75;39.50;;;;;8.83;61.60;102061.59;5030656;28;45189;-63
2022/12/01 07:15:54;;;;;;;;;47.50;39.00;;;;;8.82;62.57;102049.09;5013583;28;45456;-63
2022/12/01 07:18:20;;;;;;;;;48.25;35.50;;;;;8.89;62.38;102072.56;5018184;28;45426;-65
2022/12/01 07:20:45;;;;;;;;;48.50;34.50;;;;;8.84;62.33;102063.41;5013831;28;45424;-65
2022/12/01 07:23:10;;;;;;;;;45.50;35.25;;;;;8.93;61.76;102068.34;5012770;28;53556;-62
2022/12/01 07:25:36;;;;;;;;;43.50;34.75;;;;;8.95;62.37;102077.34;5015677;28;48020;-65
2022/12/01 07:28:01;;;;;;;;;41.00;34.50;;;;;8.95;62.34;102085.34;5004157;28;45597;-61
2022/12/01 07:30:27;;;;;;;;;53.25;36.75;;;;;8.88;62.44;102069.84;5012128;28;45334;-63
2022/12/01 07:32:52;;;;;;;;;42.00;34.00;;;;;8.91;62.02;102077.97;5015343;28;45503;-63
2022/12/01 07:35:17;;;;;;;;;34.25;29.50;;;;;8.77;62.04;102069.25;5014651;28;46302;-62
2022/12/01 07:37:43;;;;;;;;;41.75;34.00;;;;;8.80;61.83;102085.41;5014125;28;45466;-62
2022/12/01 07:40:09;;;;;;;;;34.50;31.75;;;;;8.78;61.79;102084.41;5014236;28;48566;-64
2022/12/01 07:42:34;;;;;;;;;46.75;35.75;;;;;8.76;61.40;102075.41;5013156;28;45423;-62
2022/12/01 07:45:00;;;;;;;;;51.50;38.25;;;;;8.78;61.53;102089.75;5013928;28;46290;-61
2022/12/01 07:47:25;;;;;;;;;40.50;29.25;;;;;8.72;61.58;102084.06;5014634;28;45581;-63
2022/12/01 07:49:51;;;;;;;;;44.50;34.75;;;;;8.87;62.22;102105.31;5015964;28;45418;-64
2022/12/01 07:52:16;;;;;;;;;46.00;34.00;;;;;8.84;62.09;102103.38;5017831;28;45371;-63
2022/12/01 07:54:41;;;;;;;;;48.50;37.25;;;;;8.81;61.62;102100.56;5014407;28;47064;-62
2022/12/01 07:57:07;;;;;;;;;39.50;32.50;;;;;8.92;61.98;102118.06;5012324;28;56270;-63
2022/12/01 07:59:32;;;;;;;;;37.00;29.25;;;;;8.87;61.44;102118.66;5014220;28;45512;-62
2022/12/01 08:01:57;;;;;;;;;36.25;32.00;;;;;8.85;62.01;102107.91;5000829;28;45621;-62
2022/12/01 08:04:22;;;;;;;;;41.50;32.50;;;;;8.85;61.62;102119.47;5013172;28;48627;-60
2022/12/01 08:06:48;;;;;;;;;54.25;38.75;;;;;8.81;62.03;102111.22;5014053;28;45478;-63
2022/12/01 08:09:13;;;;;;;;;40.00;33.50;;;;;8.78;62.59;102101.31;5000440;28;45453;-61
2022/12/01 08:11:38;;;;;;;;;41.00;34.25;;;;;8.84;61.72;102124.72;5009759;28;45490;-62
2022/12/01 08:14:04;;;;;;;;;36.50;22.75;;;;;8.80;61.56;102134.28;5009961;28;46731;-62
2022/12/01 08:16:30;;;;;;;;;35.00;28.00;;;;;8.73;62.79;102125.84;5011849;28;45642;-63
2022/12/01 08:18:55;;;;;;;;;39.50;28.50;;;;;8.76;61.95;102139.34;5014019;28;45796;-62
2022/12/01 08:21:22;;;;;;;;;37.75;31.25;;;;;8.81;62.44;102137.84;5014043;28;45407;-61
2022/12/01 08:23:52;;;;;;;;;39.50;33.00;;;;;8.80;62.69;102138.72;5013462;28;46476;-62
2022/12/01 08:26:18;;;;;;;;;44.25;37.00;;;;;8.75;62.67;102126.88;5013585;28;45356;-62
2022/12/01 08:28:45;;;;;;;;;36.75;28.00;;;;;8.83;62.19;102136.22;5013657;28;45383;-64
2022/12/01 08:31:13;;;;;;;;;38.25;31.75;;;;;8.75;62.49;102119.78;5013881;28;45327;-63
2022/12/01 08:33:39;;;;;;;;;49.75;33.50;;;;;8.72;62.27;102116.94;5013440;28;46044;-62
2022/12/01 08:36:06;;;;;;;;;46.50;35.75;;;;;8.74;62.46;102114.38;5013458;28;45616;-65
2022/12/01 08:38:31;;;;;;;;;44.00;37.25;;;;;8.84;62.48;102120.31;5013980;28;45503;-65
2022/12/01 08:41:02;;;;;;;;;49.25;34.00;;;;;8.89;62.32;102125.88;5013733;28;45362;-61
2022/12/01 08:43:27;;;;;;;;;32.50;27.75;;;;;8.96;62.20;102130.72;5011986;28;46894;-63
2022/12/01 08:45:55;;;;;;;;;58.75;44.00;;;;;8.95;62.10;102127.97;5013193;28;45462;-66
2022/12/01 08:48:21;;;;;;;;;35.75;31.50;;;;;8.97;61.43;102126.31;5013521;28;45406;-61
2022/12/01 08:50:46;;;;;;;;;54.25;39.00;;;;;8.88;61.40;102120.50;5013513;28;45649;-63
2022/12/01 08:53:11;;;;;;;;;38.50;27.25;;;;;8.54;61.99;102071.53;5013630;28;46294;-61
2022/12/01 08:55:36;;;;;;;;;39.25;27.00;;;;;8.90;62.44;102134.81;5014286;28;45522;-62
2022/12/01 08:58:02;;;;;;;;;27.75;25.00;;;;;8.94;61.92;102142.13;5013629;28;45526;-62
2022/12/01 09:00:28;;;;;;;;;37.00;30.25;;;;;8.92;62.49;102138.47;5014236;28;45419;-65
2022/12/01 09:02:53;;;;;;;;;34.25;32.25;;;;;9.07;61.75;102149.06;5013489;28;46260;-61
2022/12/01 09:05:18;;;;;;;;;47.75;35.25;;;;;9.14;62.05;102152.16;5013557;28;45434;-61
2022/12/01 09:08:29;;;;;;;;;52.25;38.00;;;;;9.14;62.01;102157.50;5011874;28;45316;-63
2022/12/01 09:10:29;;;;;;;;;37.00;32.00;;;;;9.11;61.57;102145.75;5005386;28;45516;-62
2022/12/01 09:12:56;;;;;;;;;33.75;25.25;;;;;9.13;61.36;102152.06;5000624;28;45752;-62
2022/12/01 09:15:21;;;;;;;;;29.00;25.00;;;;;9.09;62.15;102140.31;4996625;28;45364;-69
2022/12/01 09:17:46;;;;;;;;;38.25;31.50;;;;;9.12;61.13;102151.13;4997183;28;45381;-66
2022/12/01 09:20:12;;;;;;;;;30.75;27.00;;;;;9.13;61.35;102141.41;4997158;28;45375;-66
2022/12/01 09:22:38;;;;;;;;;37.00;30.00;;;;;9.17;61.71;102157.66;4997279;28;45515;-64
2022/12/01 09:25:04;;;;;;;;;43.75;35.25;;;;;9.17;61.45;102147.00;4997926;28;45488;-63
2022/12/01 09:27:29;;;;;;;;;35.00;32.00;;;;;9.17;61.94;102148.72;5007795;28;45491;-61
2022/12/01 09:29:54;;;;;;;;;41.25;29.50;;;;;9.08;61.48;102134.91;4997575;28;45361;-61
2022/12/01 09:32:20;;;;;;;;;31.50;26.50;;;;;9.14;61.17;102153.88;4997669;28;46135;-65
2022/12/01 09:34:45;;;;;;;;;30.25;26.75;;;;;9.14;61.63;102137.88;4997201;28;45390;-62
2022/12/01 09:37:10;;;;;;;;;27.75;20.75;;;;;9.17;61.35;102144.34;4997728;28;45415;-61
2022/12/01 09:39:36;;;;;;;;;32.25;26.50;;;;;9.21;60.93;102151.66;5007031;28;45435;-63
2022/12/01 09:42:11;;;;;;;;;34.25;27.25;;;;;9.23;61.50;102157.97;5016321;28;47963;-62
2022/12/01 09:44:51;;;;;;;;;28.75;27.50;;;;;9.22;61.18;102158.81;5010981;28;45615;-62
2022/12/01 09:47:30;;;;;;;;;52.25;34.25;;;;;9.17;60.76;102155.00;5018313;28;45661;-62
2022/12/01 09:50:20;;;;;;;;;67.75;50.75;;;;;9.21;61.29;102158.75;5010323;28;45427;-65
2022/12/01 09:52:56;;;;;;;;;34.50;26.75;;;;;9.25;61.54;102157.16;4997291;28;46126;-64
2022/12/01 09:55:24;;;;;;;;;34.75;27.25;;;;;9.27;60.98;102152.81;4996742;28;45339;-63
2022/12/01 09:57:52;;;;;;;;;32.25;27.50;;;;;9.25;61.13;102149.16;4998106;28;45628;-63
2022/12/01 10:00:22;;;;;;;;;33.50;25.00;;;;;9.31;61.38;102157.50;5015214;28;45443;-65
2022/12/01 10:03:15;;;;;;;;;29.50;24.25;;;;;9.31;61.29;102157.50;5018117;28;45432;-62
2022/12/01 10:05:40;;;;;;;;;31.75;28.25;;;;;9.34;61.05;102158.56;5017471;28;45352;-68
2022/12/01 10:08:13;;;;;;;;;36.25;29.00;;;;;9.39;60.71;102145.50;5016942;28;45527;-66
2022/12/01 10:10:44;;;;;;;;;44.50;36.25;;;;;9.30;60.83;102124.56;5007256;28;45593;-61
2022/12/01 10:13:17;;;;;;;;;44.75;38.25;;;;;9.44;59.80;102143.97;5003245;28;45396;-66
2022/12/01 10:16:08;;;;;;;;;51.00;36.25;;;;;9.44;60.02;102140.38;5005849;28;45273;-61
2022/12/01 10:19:00;;;;;;;;;45.50;34.00;;;;;9.45;59.82;102120.88;4991943;28;45705;-64
2022/12/01 10:21:58;;;;;;;;;35.00;27.50;;;;;9.54;59.53;102140.06;4996640;28;45314;-64
2022/12/01 10:24:54;;;;;;;;;40.75;30.00;;;;;9.55;59.42;102134.81;4995922;28;45472;-61
2022/12/01 10:27:23;;;;;;;;;40.25;32.75;;;;;9.64;59.31;102142.38;4995522;28;45399;-62
2022/12/01 10:30:00;;;;;;;;;34.75;29.75;;;;;9.63;59.41;102120.94;5009194;28;46124;-65
2022/12/01 10:32:48;;;;;;;;;28.75;25.00;;;;;9.73;58.91;102125.91;5008463;28;45585;-60
2022/12/01 10:35:16;;;;;;;;;29.50;27.25;;;;;9.86;58.79;102133.72;4995748;28;46487;-61
2022/12/01 10:37:44;;;;;;;;;34.25;28.50;;;;;9.92;59.16;102133.13;4995876;28;45399;-63
2022/12/01 10:40:15;;;;;;;;;38.25;25.75;;;;;9.93;58.54;102121.59;4995965;28;45562;-65
2022/12/01 10:42:46;;;;;;;;;34.00;24.50;;;;;9.90;58.86;102111.69;4996402;28;45499;-62
2022/12/01 10:45:25;;;;;;;;;30.25;26.00;;;;;10.04;58.87;102122.16;4995581;28;46194;-64
2022/12/01 10:48:14;;;;;;;;;43.50;34.75;;;;;10.08;58.36;102116.09;5009104;28;45383;-63
2022/12/01 10:50:51;;;;;;;;;28.25;25.00;;;;;10.12;58.19;102126.13;5004195;28;46105;-62
2022/12/01 10:53:22;;;;;;;;;36.25;33.75;;;;;10.15;58.32;102116.50;4998885;28;45478;-66
2022/12/01 10:56:19;;;;;;;;;42.25;33.75;;;;;10.21;57.84;102113.22;4999835;28;47349;-66
2022/12/01 10:58:49;;;;;;;;;33.75;30.75;;;;;10.20;57.84;102111.41;5000165;28;45476;-64
2022/12/01 11:01:18;;;;;;;;;46.75;37.00;;;;;9.98;57.31;102071.09;5002505;28;45383;-64
2022/12/01 11:03:50;;;;;;;;;45.75;32.00;;;;;10.14;57.95;102103.06;4995355;28;45348;-64
2022/12/01 11:06:21;;;;;;;;;32.75;30.25;;;;;10.11;57.96;102095.84;4994646;28;46177;-60
2022/12/01 11:08:52;;;;;;;;;34.50;29.00;;;;;10.17;57.67;102100.56;5002120;28;45781;-63
2022/12/01 11:11:34;;;;;;;;;35.75;28.50;;;;;10.22;57.67;102099.03;4995820;28;45318;-65
2022/12/01 11:14:20;;;;;;;;;43.50;33.25;;;;;10.18;57.75;102083.72;4999879;28;45345;-65
2022/12/01 11:16:48;;;;;;;;;28.75;22.25;;;;;10.29;57.22;102095.81;4994700;28;46465;-63
2022/12/01 11:19:19;;;;;;;;;31.25;29.00;;;;;10.30;57.21;102102.09;4994645;28;45475;-64
2022/12/01 11:21:50;;;;;;;;;28.25;24.50;;;;;10.31;57.10;102090.53;4996296;28;45699;-65
2022/12/01 11:24:40;;;;;;;;;27.75;26.50;;;;;9.94;56.70;102019.31;4998764;28;45603;-63
2022/12/01 11:27:15;;;;;;;;;38.50;33.75;;;;;10.31;56.90;102069.16;4993909;28;46343;-64
2022/12/01 11:29:41;;;;;;;;;28.00;24.75;;;;;10.38;56.98;102091.78;4992858;28;45278;-63
2022/12/01 11:32:21;;;;;;;;;50.00;37.00;;;;;10.38;56.57;102076.69;4994813;28;45322;-61